Terminal Aerodrome Forecast
Issued by NWS

Home | Current Version | Previous Version | Text Only | Print | Product List | Glossary On
Versions: 1 2 3 4 5 6 7 8 9 10 11 12 13 14 15 16 17 18 19 20
000
FTUS41 KPBZ 300300 AAA
TAFFKL
TAF AMD
KFKL 300316Z 3003/3024 29010G20KT 4SM -SHSN OVC015
     FM300500 29010G20KT 2SM -SHSN OVC004
     FM301500 30010G20KT 3SM -SHSN OVC008
     FM302100 31010G20KT P6SM OVC015
      AMD LTD TO CLD VIS AND WIND=

USA.gov is the U.S. government's official web portal to all federal, state and local government web resources and services.